createdAt,value
2022-10-03T00:00:06.205Z,100511.72
2022-10-03T00:03:24.247Z,100513.81
2022-10-03T00:06:23.842Z,100508.38
2022-10-03T00:09:33.165Z,100507.31
2022-10-03T00:12:20.224Z,100506.13
2022-10-03T00:15:08.278Z,100500.59
2022-10-03T00:18:26.203Z,100504.53
2022-10-03T00:21:31.170Z,100500.97
2022-10-03T00:24:20.186Z,100493.88
2022-10-03T00:27:15.215Z,100501.78
2022-10-03T00:30:17.161Z,100494.25
2022-10-03T00:33:25.316Z,100485.09
2022-10-03T00:36:24.161Z,100490.19
2022-10-03T00:39:23.261Z,100477.25
2022-10-03T00:42:14.187Z,100469.94
2022-10-03T00:45:30.147Z,100480.59
2022-10-03T00:48:44.126Z,100470.41
2022-10-03T00:51:48.161Z,100463.47
2022-10-03T00:55:26.142Z,100472.06
2022-10-03T00:58:29.123Z,100470.31
2022-10-03T01:01:37.413Z,100477.75
2022-10-03T01:04:32.662Z,100477.75
2022-10-03T01:07:44.102Z,100466.38
2022-10-03T01:10:52.955Z,100472.84
2022-10-03T01:14:02.114Z,100469.97
2022-10-03T01:17:08.134Z,100466.38
2022-10-03T01:20:34.138Z,100464.31
2022-10-03T01:23:39.129Z,100472.75
2022-10-03T01:26:51.110Z,100469.41
2022-10-03T01:30:07.109Z,100464.22
2022-10-03T01:32:55.227Z,100466.66
2022-10-03T01:36:03.085Z,100461.88
2022-10-03T01:38:58.098Z,100462.13
2022-10-03T01:41:54.092Z,100456.91
2022-10-03T01:45:00.066Z,100449.06
2022-10-03T01:48:02.140Z,100453.22
2022-10-03T01:50:51.131Z,100443.88
2022-10-03T01:53:31.436Z,100440.06
2022-10-03T01:56:34.100Z,100440.97
2022-10-03T01:59:26.050Z,100435.19
2022-10-03T02:02:42.114Z,100431.03
2022-10-03T02:05:56.046Z,100423.53
2022-10-03T02:09:31.097Z,100419.72
2022-10-03T02:12:33.114Z,100424.78
2022-10-03T02:15:35.182Z,100433.44
2022-10-03T02:18:52.058Z,100435.88
2022-10-03T02:21:40.390Z,100442.06
2022-10-03T02:24:35.045Z,100450.13
2022-10-03T02:27:22.048Z,100449.91
2022-10-03T02:30:20.075Z,100447.22
2022-10-03T02:33:28.046Z,100452.63
2022-10-03T02:36:29.779Z,100434.50
2022-10-03T02:39:35.019Z,100432.88
2022-10-03T02:42:53.934Z,100435.16
2022-10-03T02:46:11.052Z,100449.34
2022-10-03T02:49:13.044Z,100452.22
2022-10-03T02:52:31.124Z,100464.47
2022-10-03T02:55:55.027Z,100460.25
2022-10-03T02:58:57.010Z,100469.94
2022-10-03T03:02:00.535Z,100477.50
2022-10-03T03:05:27.986Z,100471.38
2022-10-03T03:25:35.827Z,100452.09
2022-10-03T03:28:38.797Z,100446.75
2022-10-03T03:31:24.195Z,100455.16
2022-10-03T03:34:30.825Z,100452.00
2022-10-03T03:37:18.080Z,100451.66
2022-10-03T03:40:20.759Z,100443.88
2022-10-03T03:43:16.817Z,100438.50
2022-10-03T03:46:19.588Z,100448.47
2022-10-03T03:49:57.766Z,100445.69
2022-10-03T03:53:08.776Z,100446.06
2022-10-03T03:56:28.871Z,100431.53
2022-10-03T03:59:52.742Z,100429.84
2022-10-03T04:02:58.793Z,100428.69
2022-10-03T04:06:13.762Z,100423.72
2022-10-03T04:09:11.922Z,100421.91
2022-10-03T04:12:06.743Z,100410.22
2022-10-03T04:14:53.751Z,100413.31
2022-10-03T04:18:31.116Z,100404.34
2022-10-03T04:21:53.760Z,100402.69
2022-10-03T04:24:54.339Z,100397.56
2022-10-03T04:27:55.761Z,100408.38
2022-10-03T04:31:26.732Z,100403.94
2022-10-03T04:34:24.790Z,100416.13
2022-10-03T04:37:54.717Z,100414.47
2022-10-03T04:40:41.712Z,100411.13
2022-10-03T04:43:46.446Z,100409.13
2022-10-03T04:46:56.727Z,100413.84
2022-10-03T04:49:53.635Z,100420.75
2022-10-03T04:53:11.715Z,100410.44
2022-10-03T04:56:26.709Z,100398.03
2022-10-03T04:59:35.886Z,100394.69
2022-10-03T05:02:34.709Z,100392.06
2022-10-03T05:05:32.809Z,100390.63
2022-10-03T05:08:41.700Z,100384.38
2022-10-03T05:12:13.706Z,100383.44
2022-10-03T05:14:57.597Z,100373.06
2022-10-03T05:18:14.657Z,100371.16
2022-10-03T05:21:23.907Z,100372.16
2022-10-03T05:24:22.648Z,100377.31
2022-10-03T05:27:47.695Z,100386.41
2022-10-03T05:30:34.928Z,100395.03
2022-10-03T05:33:42.632Z,100406.00
2022-10-03T05:37:01.663Z,100417.28
2022-10-03T05:39:59.649Z,100420.19
2022-10-03T05:42:48.825Z,100424.06
2022-10-03T05:45:40.048Z,100431.63
2022-10-03T05:48:32.646Z,100419.63
2022-10-03T05:51:37.257Z,100417.06
2022-10-03T05:54:47.607Z,100420.22
2022-10-03T05:57:51.654Z,100411.41
2022-10-03T06:00:57.606Z,100416.31
2022-10-03T06:03:50.635Z,100425.84
2022-10-03T06:07:07.939Z,100421.16
2022-10-03T06:10:12.614Z,100419.09
2022-10-03T06:13:11.531Z,100427.16
2022-10-03T06:16:06.606Z,100430.78
2022-10-03T06:19:07.275Z,100431.56
2022-10-03T06:22:30.601Z,100419.28
2022-10-03T06:25:39.594Z,100429.34
2022-10-03T06:28:32.051Z,100427.09
2022-10-03T06:31:58.599Z,100421.53
2022-10-03T06:35:04.214Z,100418.22
2022-10-03T06:38:23.595Z,100420.84
2022-10-03T06:41:10.591Z,100425.28
2022-10-03T06:44:07.604Z,100426.31
2022-10-03T06:46:54.583Z,100434.97
2022-10-03T06:50:26.270Z,100435.94
2022-10-03T06:53:15.574Z,100433.16
2022-10-03T06:56:17.585Z,100435.13
2022-10-03T06:58:58.289Z,100422.50
2022-10-03T07:01:59.605Z,100431.84
2022-10-03T07:05:14.435Z,100420.31
2022-10-03T07:08:31.564Z,100414.75
2022-10-03T07:11:31.152Z,100423.09
2022-10-03T07:14:55.538Z,100414.59
2022-10-03T07:17:57.548Z,100423.75
2022-10-03T07:21:22.532Z,100425.38
2022-10-03T07:24:33.509Z,100428.22
2022-10-03T07:27:30.529Z,100432.63
2022-10-03T07:30:16.847Z,100421.94
2022-10-03T07:33:38.815Z,100435.91
2022-10-03T07:37:14.313Z,100430.19
2022-10-03T07:40:13.522Z,100420.41
2022-10-03T07:43:23.478Z,100414.22
2022-10-03T07:46:19.503Z,100411.63
2022-10-03T07:49:34.497Z,100404.19
2022-10-03T07:52:39.524Z,100395.16
2022-10-03T07:55:32.522Z,100402.88
2022-10-03T07:58:34.135Z,100394.44
2022-10-03T08:01:42.553Z,100397.25
2022-10-03T08:04:31.577Z,100395.75
2022-10-03T08:07:30.522Z,100393.41
2022-10-03T08:10:23.456Z,100380.25
2022-10-03T08:13:19.458Z,100375.06
2022-10-03T08:16:29.457Z,100363.09
2022-10-03T08:19:28.470Z,100359.50
2022-10-03T08:22:46.466Z,100344.44
2022-10-03T08:25:42.450Z,100343.94
2022-10-03T08:28:44.211Z,100346.84
2022-10-03T08:31:33.485Z,100349.91
2022-10-03T08:34:29.045Z,100337.28
2022-10-03T08:37:33.425Z,100345.31
2022-10-03T08:40:17.219Z,100345.13
2022-10-03T08:43:04.439Z,100345.44
2022-10-03T08:46:06.488Z,100351.31
2022-10-03T08:49:10.536Z,100347.97
2022-10-03T08:52:36.425Z,100345.66
2022-10-03T08:55:52.433Z,100352.31
2022-10-03T08:59:10.279Z,100354.81
2022-10-03T09:02:03.458Z,100362.69
2022-10-03T09:04:49.860Z,100362.25
2022-10-03T09:07:58.375Z,100372.88
2022-10-03T09:11:30.307Z,100376.19
2022-10-03T09:14:39.403Z,100373.25
2022-10-03T09:17:25.744Z,100376.00
2022-10-03T09:20:49.453Z,100384.09
2022-10-03T09:23:52.410Z,100383.50
2022-10-03T09:26:42.595Z,100391.75
2022-10-03T09:29:38.527Z,100392.16
2022-10-03T09:32:55.396Z,100386.31
2022-10-03T09:35:54.471Z,100391.81
2022-10-03T09:38:47.390Z,100384.59
2022-10-03T09:41:30.582Z,100396.34
2022-10-03T09:44:29.356Z,100382.22
2022-10-03T09:47:51.389Z,100392.09
2022-10-03T09:51:00.371Z,100399.81
2022-10-03T09:54:10.430Z,100395.84
2022-10-03T09:57:23.050Z,100409.53
2022-10-03T10:00:22.170Z,100418.94
2022-10-03T10:03:46.400Z,100410.41
2022-10-03T10:06:29.532Z,100408.63
2022-10-03T10:09:42.331Z,100408.31
2022-10-03T10:13:04.374Z,100409.72
2022-10-03T10:16:20.357Z,100413.84
2022-10-03T10:19:28.348Z,100405.50
2022-10-03T10:22:50.606Z,100395.94
2022-10-03T10:26:16.309Z,100406.31
2022-10-03T10:29:15.156Z,100410.44
2022-10-03T10:32:50.290Z,100405.50
2022-10-03T10:36:06.873Z,100399.38
2022-10-03T10:39:24.309Z,100398.81
2022-10-03T10:42:07.324Z,100399.19
2022-10-03T10:45:18.340Z,100389.91
2022-10-03T10:47:58.732Z,100391.34
2022-10-03T10:51:11.297Z,100385.97
2022-10-03T10:54:16.693Z,100392.66
2022-10-03T10:57:35.310Z,100389.28
2022-10-03T11:00:25.353Z,100382.56
2022-10-03T11:03:49.279Z,100372.91
2022-10-03T11:06:53.615Z,100367.69
2022-10-03T11:10:11.260Z,100365.28
2022-10-03T11:13:10.262Z,100364.97
2022-10-03T11:16:23.389Z,100359.56
2022-10-03T11:19:16.257Z,100352.91
2022-10-03T11:22:40.423Z,100351.91
2022-10-03T11:25:47.272Z,100356.91
2022-10-03T11:28:59.230Z,100351.13
2022-10-03T11:32:15.258Z,100353.44
2022-10-03T11:35:22.337Z,100346.75
2022-10-03T11:38:09.261Z,100341.75
2022-10-03T11:41:07.351Z,100337.69
2022-10-03T11:44:31.262Z,100340.13
2022-10-03T11:47:56.222Z,100336.97
2022-10-03T11:50:52.230Z,100340.88
2022-10-03T11:54:29.874Z,100340.44
2022-10-03T11:57:23.226Z,100342.13
2022-10-03T12:00:22.202Z,100339.56
2022-10-03T12:03:50.168Z,100341.03
2022-10-03T12:06:51.872Z,100338.34
2022-10-03T12:09:59.180Z,100348.78
2022-10-03T12:12:57.191Z,100336.38
2022-10-03T12:15:48.001Z,100334.25
2022-10-03T12:18:41.211Z,100338.41
2022-10-03T12:21:24.401Z,100340.53
2022-10-03T12:24:29.170Z,100345.84
2022-10-03T12:27:37.177Z,100329.03
2022-10-03T12:30:27.178Z,100327.66
2022-10-03T12:33:28.551Z,100315.88
2022-10-03T12:36:22.139Z,100317.75
2022-10-03T12:39:32.164Z,100321.78
2022-10-03T12:42:31.248Z,100322.72
2022-10-03T12:45:46.201Z,100329.75
2022-10-03T12:48:47.149Z,100326.91
2022-10-03T12:52:05.166Z,100333.22
2022-10-03T12:54:57.175Z,100335.19
2022-10-03T12:57:50.132Z,100325.06
2022-10-03T13:00:34.297Z,100331.50
2022-10-03T13:03:24.149Z,100328.44
2022-10-03T13:06:07.567Z,100323.31
2022-10-03T13:09:23.159Z,100334.41
2022-10-03T13:12:39.279Z,100338.88
2022-10-03T13:15:54.203Z,100338.66
2022-10-03T13:19:02.006Z,100331.38
2022-10-03T13:21:58.357Z,100343.22
2022-10-03T13:25:16.164Z,100332.69
2022-10-03T13:28:42.082Z,100334.50
2022-10-03T13:31:36.143Z,100333.88
2022-10-03T13:34:25.289Z,100333.75
2022-10-03T13:37:21.151Z,100328.31
2022-10-03T13:40:12.208Z,100328.41
2022-10-03T13:43:00.158Z,100333.59
2022-10-03T13:45:40.525Z,100323.00
2022-10-03T13:48:33.079Z,100309.00
2022-10-03T13:51:52.096Z,100315.47
2022-10-03T13:54:56.802Z,100303.59
2022-10-03T13:57:53.165Z,100299.13
2022-10-03T14:00:59.075Z,100291.41
2022-10-03T14:04:01.028Z,100298.81
2022-10-03T14:07:09.072Z,100298.22
2022-10-03T14:10:09.064Z,100293.25
2022-10-03T14:13:04.702Z,100294.94
2022-10-03T14:16:06.158Z,100285.47
2022-10-03T14:19:04.919Z,100286.72
2022-10-03T14:22:29.071Z,100277.22
2022-10-03T14:25:12.306Z,100283.72
2022-10-03T14:28:09.132Z,100284.28
2022-10-03T14:31:10.297Z,100289.84
2022-10-03T14:34:02.012Z,100289.84
2022-10-03T14:37:02.010Z,100285.16
2022-10-03T14:40:15.141Z,100292.81
2022-10-03T14:43:30.047Z,100287.25
2022-10-03T14:46:19.118Z,100287.53
2022-10-03T14:49:12.990Z,100282.06
2022-10-03T14:52:16.036Z,100278.19
2022-10-03T14:55:02.508Z,100275.97
2022-10-03T14:58:10.322Z,100276.75
2022-10-03T15:01:10.017Z,100282.75
2022-10-03T15:04:35.039Z,100284.59
2022-10-03T15:07:16.019Z,100289.72
2022-10-03T15:10:05.029Z,100281.03
2022-10-03T15:28:05.189Z,100287.38
2022-10-03T15:30:53.164Z,100284.69
2022-10-03T15:33:49.155Z,100288.72
2022-10-03T15:36:44.129Z,100281.28
2022-10-03T15:39:42.125Z,100282.97
2022-10-03T15:42:35.206Z,100284.75
2022-10-03T15:45:26.105Z,100284.75
2022-10-03T15:48:13.283Z,100290.06
2022-10-03T15:51:06.134Z,100286.72
2022-10-03T15:53:58.112Z,100294.00
2022-10-03T15:56:57.155Z,100289.72
2022-10-03T15:59:40.623Z,100299.91
2022-10-03T16:02:33.205Z,100296.47
2022-10-03T16:05:27.081Z,100304.19
2022-10-03T16:08:23.058Z,100306.06
2022-10-03T16:11:21.408Z,100306.22
2022-10-03T16:14:26.288Z,100307.91
2022-10-03T16:17:14.781Z,100312.31
2022-10-03T16:20:12.059Z,100317.34
2022-10-03T16:23:02.107Z,100320.50
2022-10-03T16:26:14.678Z,100324.31
2022-10-03T16:29:16.110Z,100324.59
2022-10-03T16:32:03.295Z,100336.38
2022-10-03T16:34:53.136Z,100361.25
2022-10-03T16:37:35.348Z,100363.50
2022-10-03T16:40:29.083Z,100360.81
2022-10-03T16:43:11.558Z,100356.94
2022-10-03T16:46:00.209Z,100378.94
2022-10-03T16:49:01.680Z,100369.03
2022-10-03T16:51:52.110Z,100377.03
2022-10-03T16:54:42.065Z,100372.31
2022-10-03T16:57:31.819Z,100365.22
2022-10-03T17:00:27.227Z,100365.69
2022-10-03T17:03:21.662Z,100367.19
2022-10-03T17:06:12.174Z,100364.66
2022-10-03T17:08:55.048Z,100372.91
2022-10-03T17:11:46.023Z,100366.00
2022-10-03T17:14:48.028Z,100378.06
2022-10-03T17:17:32.874Z,100376.22
2022-10-03T17:20:43.047Z,100372.09
2022-10-03T17:23:33.555Z,100374.91
2022-10-03T17:26:27.525Z,100383.97
2022-10-03T17:29:27.985Z,100383.97
2022-10-03T17:32:12.243Z,100388.34
2022-10-03T17:35:18.094Z,100395.16
2022-10-03T17:38:47.802Z,100374.31
2022-10-03T17:41:43.742Z,100371.28
2022-10-03T17:44:39.028Z,100370.31
2022-10-03T17:47:32.960Z,100373.31
2022-10-03T17:50:33.082Z,100370.75
2022-10-03T17:53:38.014Z,100365.19
2022-10-03T17:56:23.153Z,100357.53
2022-10-03T17:59:11.671Z,100362.56
2022-10-03T18:02:03.108Z,100356.19
2022-10-03T18:04:46.264Z,100359.09
2022-10-03T18:07:36.944Z,100374.75
2022-10-03T18:10:39.969Z,100401.72
2022-10-03T18:13:42.429Z,100408.63
2022-10-03T18:16:48.026Z,100407.72
2022-10-03T18:20:03.034Z,100415.16
2022-10-03T18:22:53.624Z,100408.97
2022-10-03T18:26:20.409Z,100418.56
2022-10-03T18:29:29.892Z,100427.38
2022-10-03T18:32:16.954Z,100431.44
2022-10-03T18:35:29.928Z,100434.47
2022-10-03T18:38:16.048Z,100428.94
2022-10-03T18:41:08.004Z,100443.97
2022-10-03T18:44:06.878Z,100444.91
2022-10-03T18:46:52.801Z,100438.75
2022-10-03T18:49:40.912Z,100443.75
2022-10-03T18:52:47.359Z,100439.00
2022-10-03T18:55:55.726Z,100437.63
2022-10-03T18:58:58.906Z,100432.06
2022-10-03T19:02:01.096Z,100432.06
2022-10-03T19:04:52.064Z,100443.38
2022-10-03T19:07:45.887Z,100436.06
2022-10-03T19:10:50.877Z,100440.66
2022-10-03T19:14:03.927Z,100435.00
2022-10-03T19:17:31.867Z,100436.38
2022-10-03T19:20:23.474Z,100447.69
2022-10-03T19:23:33.868Z,100444.00
2022-10-03T19:26:35.996Z,100450.88
2022-10-03T19:29:44.848Z,100448.81
2022-10-03T19:32:56.898Z,100455.03
2022-10-03T19:35:40.044Z,100460.44
2022-10-03T19:38:33.880Z,100466.78
2022-10-03T19:41:41.040Z,100464.25
2022-10-03T19:44:34.967Z,100473.72
2022-10-03T19:47:57.108Z,100474.59
2022-10-03T19:50:38.494Z,100476.56
2022-10-03T19:53:29.807Z,100491.09
2022-10-03T19:56:25.847Z,100497.16
2022-10-03T19:59:20.948Z,100493.25
2022-10-03T20:02:11.931Z,100501.28
2022-10-03T20:05:03.820Z,100493.66
2022-10-03T20:07:53.839Z,100493.00
2022-10-03T20:10:37.006Z,100493.81
2022-10-03T20:13:23.839Z,100501.50
2022-10-03T20:16:05.014Z,100502.50
2022-10-03T20:18:55.846Z,100506.59
2022-10-03T20:21:37.116Z,100488.09
2022-10-03T20:24:51.795Z,100484.06
2022-10-03T20:28:00.830Z,100482.78
2022-10-03T20:30:55.790Z,100479.06
2022-10-03T20:33:40.845Z,100477.78
2022-10-03T20:36:37.793Z,100476.69
2022-10-03T20:39:24.002Z,100465.81
2022-10-03T20:42:23.816Z,100483.38
2022-10-03T20:45:33.473Z,100480.47
2022-10-03T20:48:28.783Z,100495.38
2022-10-03T20:51:08.859Z,100500.09
2022-10-03T20:53:59.740Z,100498.84
2022-10-03T20:56:58.899Z,100504.41
2022-10-03T20:59:54.766Z,100505.47
2022-10-03T21:02:42.970Z,100501.72
2022-10-03T21:05:54.739Z,100509.53
2022-10-03T21:08:52.986Z,100504.19
2022-10-03T21:11:38.852Z,100499.00
2022-10-03T21:14:37.839Z,100496.34
2022-10-03T21:17:20.062Z,100493.91
2022-10-03T21:20:13.759Z,100488.88
2022-10-03T21:23:05.759Z,100488.22
2022-10-03T21:25:48.823Z,100492.72
2022-10-03T21:28:41.754Z,100485.38
2022-10-03T21:31:46.872Z,100484.09
2022-10-03T21:34:40.732Z,100495.50
2022-10-03T21:37:50.236Z,100489.00
2022-10-03T21:40:39.724Z,100483.31
2022-10-03T21:43:53.799Z,100483.97
2022-10-03T21:47:01.691Z,100479.75
2022-10-03T21:50:14.683Z,100485.97
2022-10-03T21:53:20.713Z,100485.97
2022-10-03T21:56:26.739Z,100482.88
2022-10-03T21:59:28.523Z,100484.03
2022-10-03T22:02:28.765Z,100478.34
2022-10-03T22:05:40.675Z,100469.25
2022-10-03T22:08:38.662Z,100470.50
2022-10-03T22:11:41.043Z,100473.97
2022-10-03T22:14:50.638Z,100478.66
2022-10-03T22:17:34.013Z,100479.66
2022-10-03T22:20:31.620Z,100472.69
2022-10-03T22:23:21.079Z,100475.44
2022-10-03T22:26:22.681Z,100470.91
2022-10-03T22:29:40.405Z,100469.09
2022-10-03T22:33:01.639Z,100468.28
2022-10-03T22:36:08.622Z,100467.59
2022-10-03T22:38:51.484Z,100472.00
2022-10-03T22:41:42.972Z,100473.97
2022-10-03T22:44:33.605Z,100471.88
2022-10-03T22:47:22.733Z,100468.97
2022-10-03T22:50:15.610Z,100479.22
2022-10-03T22:53:05.638Z,100474.34
2022-10-03T22:55:51.136Z,100472.84
2022-10-03T22:58:39.600Z,100476.47
2022-10-03T23:01:20.114Z,100473.38
2022-10-03T23:04:06.586Z,100482.28
2022-10-03T23:07:16.719Z,100488.63
2022-10-03T23:10:57.588Z,100492.72
2022-10-03T23:13:40.663Z,100499.38
2022-10-03T23:16:49.587Z,100504.56
2022-10-03T23:19:34.802Z,100518.56
2022-10-03T23:22:30.616Z,100518.38
2022-10-03T23:25:22.089Z,100522.63
2022-10-03T23:28:17.615Z,100516.13
2022-10-03T23:30:58.030Z,100503.59
2022-10-03T23:33:47.534Z,100505.75
2022-10-03T23:36:30.479Z,100502.19
2022-10-03T23:39:17.556Z,100519.91
2022-10-03T23:42:15.557Z,100519.44
2022-10-03T23:45:16.669Z,100515.38
2022-10-03T23:48:23.521Z,100520.91
2022-10-03T23:51:11.649Z,100515.03
2022-10-03T23:54:00.614Z,100524.63
2022-10-03T23:56:45.649Z,100526.41
2022-10-03T23:59:34.542Z,100530.84
